WetterOnline ( http://www.wetteronline.de )

Wetter aktuell Luckenwalde

Aktuelles Wetter: Baruth (55m)

6-stündlich | Neueste Meldungen
Ortszeit Temperatur Wetter
So, 18.11. 7:00 -7.2° C bewölkt
So, 18.11. 1:00 -6.2° C wolkenlos
Sa, 17.11. 19:00 -0.3° C bedeckt
Sa, 17.11. 13:00 5.5° C wolkenlos
Sa, 17.11. 7:00 -0.7° C wolkenlos
Sa, 17.11. 1:00 2.3° C wolkenlos
Fr, 16.11. 19:00 5.2° C bedeckt
Fr, 16.11. 13:00 8.3° C wolkenlos
Ortszeit Temperatur Wetter
So, 18.11. 7:00 -7.2° C bewölkt
So, 18.11. 6:50 -7.2° C bewölkt
So, 18.11. 6:40 -7.5° C wolkig
So, 18.11. 6:30 -7.2° C wolkig
So, 18.11. 6:20 -7.2° C wolkig
So, 18.11. 6:10 -8.4° C leicht bewölkt
So, 18.11. 6:00 -7.9° C leicht bewölkt
So, 18.11. 5:30 -7.9° C leicht bewölkt
So, 18.11. 5:00 -7.3° C leicht bewölkt
So, 18.11. 4:30 -8.5° C wolkenlos
So, 18.11. 4:00 -6.6° C wolkenlos
Ortszeit Relative Feuchte Sichtweite
So, 18.11. 7:00 90% 5.0 km
So, 18.11. 1:00 93% 4.1 km
Sa, 17.11. 19:00 80% 12 km
Sa, 17.11. 13:00 59% 15 km
Sa, 17.11. 7:00 94% 3.6 km
Sa, 17.11. 1:00 86% 9 km
Fr, 16.11. 19:00 70% 30 km
Fr, 16.11. 13:00 61% 25 km
Ortszeit Relative Feuchte Sichtweite
So, 18.11. 7:00 90% 5.0 km
So, 18.11. 6:50 90% -
So, 18.11. 6:40 90% -
So, 18.11. 6:30 90% 2.5 km
So, 18.11. 6:20 90% -
So, 18.11. 6:10 92% -
So, 18.11. 6:00 90% 4.4 km
So, 18.11. 5:30 90% 4.6 km
So, 18.11. 5:00 89% 6 km
So, 18.11. 4:30 86% 5.0 km
So, 18.11. 4:00 91% 4.6 km
Ortszeit Niederschlagsmenge Niederschlagsart
So, 18.11. 7:00 0.0 l/m2 in 12 Std. -
So, 18.11. 1:00 0.0 l/m2 in 6 Std. -
Sa, 17.11. 19:00 0.0 l/m2 in 12 Std. -
Sa, 17.11. 13:00 0.0 l/m2 in 6 Std. -
Sa, 17.11. 7:00 0.0 l/m2 in 12 Std. -
Sa, 17.11. 1:00 0.0 l/m2 in 6 Std. -
Fr, 16.11. 19:00 0.0 l/m2 in 12 Std. -
Fr, 16.11. 13:00 0.0 l/m2 in 6 Std. -
Ortszeit Niederschlagsmenge Niederschlagsart
So, 18.11. 7:00 0.0 l/m2 in 1 Std. -
So, 18.11. 6:50 keine Meldung -
So, 18.11. 6:40 keine Meldung -
So, 18.11. 6:30 0.0 l/m2 in 1 Std. -
So, 18.11. 6:20 keine Meldung -
So, 18.11. 6:10 keine Meldung -
So, 18.11. 6:00 0.0 l/m2 in 1 Std. -
So, 18.11. 5:30 0.0 l/m2 in 1 Std. -
So, 18.11. 5:00 0.0 l/m2 in 1 Std. -
So, 18.11. 4:30 0.0 l/m2 in 1 Std. -
So, 18.11. 4:00 0.0 l/m2 in 1 Std. -
Ortszeit Stärke Spitze Richtung
km/h Bft. km/h Grad Sektor
So, 18.11. 7:00 4 1 7 290° W
So, 18.11. 1:00 4 1 11 80° O
Sa, 17.11. 19:00 4 1 29 100° O
Sa, 17.11. 13:00 11 2 32 80° O
Sa, 17.11. 7:00 7 2 18 70° O
Sa, 17.11. 1:00 9 2 26 90° O
Fr, 16.11. 19:00 7 2 32 90° O
Fr, 16.11. 13:00 22 4 40 120° SO
Ortszeit Stärke Spitze Richtung
km/h Bft. km/h Grad Sektor
So, 18.11. 7:00 4 1 7 290° W
So, 18.11. 6:50 4 1 - 290° W
So, 18.11. 6:40 4 1 - 280° W
So, 18.11. 6:30 4 1 7 270° W
So, 18.11. 6:20 4 1 - 270° W
So, 18.11. 6:10 6 1 - 210° SW
So, 18.11. 6:00 4 1 7 240° SW
So, 18.11. 5:30 4 1 7 210° SW
So, 18.11. 5:00 4 1 7 330° NW
So, 18.11. 4:30 4 1 7 310° NW
So, 18.11. 4:00 4 1 7 260° W
Ortszeit Untergrenze Bedeckung Gattung
total tief tief mittel hoch
So, 18.11. 7:00 6600 m 8/8 5/8 - - -
So, 18.11. 1:00 - 0/8 0/8 - - -
Sa, 17.11. 19:00 6000 m 8/8 8/8 - - -
Sa, 17.11. 13:00 - 0/8 0/8 - - -
Sa, 17.11. 7:00 - 0/8 0/8 - - -
Sa, 17.11. 1:00 - 0/8 0/8 - - -
Fr, 16.11. 19:00 870 m 8/8 8/8 - - -
Fr, 16.11. 13:00 - 0/8 0/8 - - -
Ortszeit Bedeckungsgrad in Achtel und Wolkenuntergrenze
So, 18.11. 7:00 5(6600m) 8(7500m)
So, 18.11. 6:50 5(6600m) 8(7500m)
So, 18.11. 6:40 8(7200m) 8(8700m)
So, 18.11. 6:30 1(2100m) 7(7800m) 7(8700m)
So, 18.11. 6:20 1(2100m) 7(7800m) 7(8700m)
So, 18.11. 6:10 1(2100m) 6(7800m)
So, 18.11. 6:00 1(2100m) 4(7800m) 5(8700m)
So, 18.11. 5:30 2(2100m) 3(8100m) 4(8700m)
So, 18.11. 5:00 1(2100m) 9 9
So, 18.11. 4:30 keine Wolken
So, 18.11. 4:00 keine Wolken
Ortszeit Luftdruck NN (hPa) Tendenz (hPa in 3 Std.)
So, 18.11. 7:00 1034 - 1,5
So, 18.11. 1:00 1037 - 0,8
Sa, 17.11. 19:00 1038 + 0,2
Sa, 17.11. 13:00 1038 - 0,4
Sa, 17.11. 7:00 1038 0,0
Sa, 17.11. 1:00 1037 + 0,9
Fr, 16.11. 19:00 1036 + 0,6
Fr, 16.11. 13:00 1035 - 0,7
Ortszeit Luftdruck NN (hPa) Tendenz (hPa in 3 Std.)
So, 18.11. 7:00 1034 - 1,5
So, 18.11. 6:50 1034 keine Meldung
So, 18.11. 6:40 1034 keine Meldung
So, 18.11. 6:30 1034 - 1,6
So, 18.11. 6:20 1034 keine Meldung
So, 18.11. 6:10 1034 keine Meldung
So, 18.11. 6:00 1035 - 1,1
So, 18.11. 5:30 1035 - 1,1
So, 18.11. 5:00 1035 - 1,6
So, 18.11. 4:30 1035 - 1,4
So, 18.11. 4:00 1035 - 1,5
Ortszeit Schneehöhe (cm)
So, 18.11. 7:00 0
So, 18.11. 1:00 0
Sa, 17.11. 19:00 0
Sa, 17.11. 13:00 0
Sa, 17.11. 7:00 0
Sa, 17.11. 1:00 0
Fr, 16.11. 19:00 0
Fr, 16.11. 13:00 0
Ortszeit Schneehöhe (cm)
So, 18.11. 7:00 0
So, 18.11. 6:50 0
So, 18.11. 6:40 0
So, 18.11. 6:30 0
So, 18.11. 6:20 0
So, 18.11. 6:10 0
So, 18.11. 6:00 0
So, 18.11. 5:30 0
So, 18.11. 5:00 0
So, 18.11. 4:30 0
So, 18.11. 4:00 0
Link zu dieser Seite / Seite empfehlen

Das Wetter in ...